EDT,Max TemperatureF,Mean TemperatureF,Min TemperatureF,Max Dew PointF,MeanDew PointF,Min DewpointF,Max Humidity, Mean Humidity, Min Humidity, Max Sea Level PressureIn, Mean Sea Level PressureIn, Min Sea Level PressureIn, Max VisibilityMiles, Mean VisibilityMiles, Min VisibilityMiles, Max Wind SpeedMPH, Mean Wind SpeedMPH, Max Gust SpeedMPH,PrecipitationIn, CloudCover, Events, WindDirDegrees
2012-6-1,76,68,60,69,63,56,93,83,73,29.90,29.77,29.63,10,8,1,24,5,33,0.79,5,Rain-Thunderstorm,148
2012-6-2,73,62,51,55,47,43,84,61,38,29.85,29.81,29.75,10,10,10,18,7,28,0.00,2,,269
2012-6-3,78,66,53,54,48,45,86,60,33,29.86,29.80,29.72,10,10,9,20,8,26,0.05,2,Rain,231
2012-6-4,71,62,52,53,49,47,96,70,44,29.79,29.72,29.67,10,10,5,20,8,26,0.00,4,,343
2012-6-5,69,61,53,53,50,45,93,69,45,29.97,29.89,29.80,10,10,10,12,4,15,T,8,,31
2012-6-6,73,61,48,52,49,46,93,67,41,30.02,29.99,29.96,10,10,10,8,3,20,0.00,2,,200
2012-6-7,80,66,51,54,51,48,96,66,35,30.04,30.01,29.96,10,10,8,20,4,28,T,2,Rain,267
2012-6-8,82,66,49,56,52,48,100,67,33,30.05,29.99,29.94,10,10,5,17,4,23,0.00,0,,280
2012-6-9,88,72,56,57,52,46,86,55,24,30.01,29.98,29.95,10,10,9,14,6,32,0.00,0,,253
2012-6-10,89,74,58,62,58,55,93,64,34,30.12,30.08,30.02,10,10,9,10,2,28,0.00,0,,179
2012-6-11,84,73,61,63,61,59,93,70,46,30.15,30.09,30.06,10,9,5,16,4,22,0.00,3,,174
2012-6-12,82,74,66,72,67,62,97,81,65,30.04,29.92,29.82,10,6,0,25,4,40,1.32,7,Rain-Thunderstorm,137
2012-6-13,78,70,62,65,54,44,93,62,31,30.10,30.01,29.89,10,10,9,18,8,24,0.00,0,,352
2012-6-14,80,70,60,60,55,51,87,66,45,30.22,30.17,30.10,10,10,10,12,4,15,0.00,2,,33
2012-6-15,79,69,59,60,57,53,97,70,42,30.31,30.26,30.22,10,10,7,9,2,13,0.00,3,,95
2012-6-16,79,67,55,59,55,53,93,69,45,30.34,30.27,30.19,10,10,8,9,3,14,0.00,1,,123
2012-6-17,78,66,53,56,55,52,93,68,43,30.20,30.13,30.03,10,10,8,14,5,21,0.00,1,,155
2012-6-18,68,65,62,62,60,55,93,81,68,30.11,30.07,30.03,10,9,6,10,4,14,0.10,8,Rain,139
2012-6-19,89,77,65,72,68,63,93,74,55,30.16,30.12,30.07,10,7,2,7,2,9,0.00,4,,184
2012-6-20,93,80,67,72,68,65,93,67,41,30.17,30.10,30.02,10,9,4,9,3,17,0.00,0,,257
2012-6-21,94,81,68,71,69,66,97,69,41,30.05,29.96,29.86,10,7,2,9,2,26,T,1,Rain,211
2012-6-22,91,79,67,71,68,60,90,67,44,29.88,29.85,29.78,10,8,5,16,3,23,0.03,2,Rain-Thunderstorm,217
2012-6-23,86,74,61,64,58,51,100,66,32,30.03,29.96,29.89,10,7,1,13,4,18,0.00,0,,308
2012-6-24,88,74,59,66,60,57,93,65,37,30.04,29.98,29.90,10,10,7,10,1,13,0.00,0,,274
2012-6-25,83,73,62,64,54,40,93,61,28,29.89,29.80,29.76,10,10,6,21,9,30,0.01,1,,312
2012-6-26,79,69,58,47,44,40,62,46,30,29.93,29.88,29.83,10,10,10,22,10,31,0.00,1,,320
2012-6-27,87,70,52,56,51,46,83,56,29,29.96,29.91,29.87,10,10,10,18,7,25,0.00,0,,280
2012-6-28,94,77,59,64,57,53,84,56,28,29.93,29.85,29.75,10,10,10,16,5,20,0.00,1,,210
2012-6-29,102,87,72,72,67,62,74,51,27,29.79,29.74,29.68,10,10,9,9,5,,0.00,0,,277
2012-6-30,,,,,,,,,,,,,10,10,10,0,0,,0.00,0,,-1